Alaska Titan — WDE4789 — position and weather

sailwx.info

Track history (hours):
 
Tides and Currents Weather Stations Pressure Air Temp Water Temp Dewpoint Dewpoint Depression Visibility Wind Speed Wind Dir Waves Ship Positions

Alaska Titan

Owner: WESTERN TOWBOAT CO, Seattle, WA. More information available from US FCC via Universal Licensing System and Coast Guard Vessel Documentation Center.

Last reported at 2017-Mar-24 20:30 UTC. Time now 2017-Mar-29 03:12 UTC.
Position N 47°39' W 122°22'.

Length 40 m; draft 6 m.

Type: Tow > 200 m length. MMSI: 367357890.

Date/timePositionNaut miles runAvg speedWind from/ knotsBaromVisibWave heightAir tempDewpointWater temp
2017-Mar-24 20:30N 47°39' W 122°22'3 3.4
2017-Mar-24 19:33N 47°40' W 122°27'6 5.8
2017-Mar-24 18:33N 47°35' W 122°21'2 2.0
2017-Mar-24 17:33N 47°37' W 122°23'6 6.3
2017-Mar-24 16:33N 47°42' W 122°28'9 9.0
2017-Mar-24 15:33N 47°51' W 122°29'6 6.2
2017-Mar-24 14:33N 47°57' W 122°33'11 7.7
2017-Mar-24 13:07N 48°07' W 122°41'4 7.6
2017-Mar-24 12:32N 48°10' W 122°45'9 8.8
2017-Mar-24 11:32N 48°19' W 122°47'9 9.4
2017-Mar-24 10:33N 48°28' W 122°45'7 7.4
2017-Mar-24 09:33N 48°35' W 122°45'7 7.2
2017-Mar-24 08:33N 48°42' W 122°45'8 8.2
2017-Mar-24 07:33N 48°48' W 122°54'9 8.9
2017-Mar-24 06:33N 48°53' W 123°05'9 8.8
2017-Mar-24 05:33N 48°58' W 123°15'9 8.8
2017-Mar-24 04:33N 49°04' W 123°25'8 8.2
2017-Mar-24 03:33N 49°10' W 123°34'9 8.7
2017-Mar-24 02:33N 49°16' W 123°43'9 9.5
2017-Mar-24 01:33N 49°22' W 123°55'9 9.2
2017-Mar-24 00:33N 49°28' W 124°06'9 9.0
2017-Mar-23 23:33N 49°33' W 124°18'9 8.9
2017-Mar-23 22:33N 49°37' W 124°29'8 8.4
2017-Mar-23 21:33N 49°42' W 124°40'8 7.8
2017-Mar-23 20:33N 49°47' W 124°50'8 7.6
2017-Mar-23 19:33N 49°51' W 124°59'9 8.6
2017-Mar-23 18:33N 49°57' W 125°09'10 9.8
2017-Mar-23 17:33N 50°05' W 125°17'9 8.8
2017-Mar-23 16:33N 50°13' W 125°23'56 7.8
2017-Mar-23 09:23N 50°35' W 126°43'10 9.8
2017-Mar-23 08:20N 50°42' W 126°55'8 9.7
2017-Mar-23 07:29N 50°45' W 127°07'9 9.7
2017-Mar-23 06:33N 50°51' W 127°18'10 9.7
2017-Mar-23 05:33N 50°58' W 127°30'10 9.5
2017-Mar-23 04:33N 51°04' W 127°41'359 8.8
2017-Mar-21 12:00N 55°36' W 134°12'109 9.1 320 / 101012.0 5.4 7.7
2017-Mar-21 00:00N 57°24' W 134°42'91 7.5 260 / 101020.0 5.4 41.4
2017-Mar-20 12:00N 58°12' W 137°06'98 8.1 150 / 301022.0 2.2 6.0
2017-Mar-20 00:00N 58°48' W 140°00'105 8.7 160 / 251015.0 5.4 8.9
2017-Mar-19 12:00N 59°24' W 143°12'55 9.1 130 / 101007.0 36.9
2017-Mar-19 06:00N 59°42' W 144°54'   160 / 121004.010.8 1.6
2017-Mar-15 18:00N 60°00' W 145°42'49 8.1 030 / 35999.0 2.2 0.5
2017-Mar-15 12:00N 59°36' W 144°18'6110.2 100 / 15990.0 2.7
2017-Mar-15 06:00N 59°30' W 142°18'61 8.8 120 / 15990.0 5.4 2.7
2017-Mar-14 23:00N 59°24' W 140°18'   060 / 20988.0 1.1 1.1
Track history (hours):
 
Tides and Currents Weather Stations Pressure Air Temp Water Temp Dewpoint Dewpoint Depression Visibility Wind Speed Wind Dir Waves Ship Positions

Alaska Titan

Owner: WESTERN TOWBOAT CO, Seattle, WA. More information available from US FCC via Universal Licensing System and Coast Guard Vessel Documentation Center.

Last reported at 2017-Mar-24 20:30 UTC. Time now 2017-Mar-29 03:12 UTC.
Position N 47°39' W 122°22'.

Length 40 m; draft 6 m.

Type: Tow > 200 m length. MMSI: 367357890.

Date/timePositionNaut miles runAvg speedWind from/ knotsBaromVisibWave heightAir tempDewpointWater temp
2017-Mar-24 20:30N 47°39' W 122°22'3 3.4
2017-Mar-24 19:33N 47°40' W 122°27'6 5.8
2017-Mar-24 18:33N 47°35' W 122°21'2 2.0
2017-Mar-24 17:33N 47°37' W 122°23'6 6.3
2017-Mar-24 16:33N 47°42' W 122°28'9 9.0
2017-Mar-24 15:33N 47°51' W 122°29'6 6.2
2017-Mar-24 14:33N 47°57' W 122°33'11 7.7
2017-Mar-24 13:07N 48°07' W 122°41'4 7.6
2017-Mar-24 12:32N 48°10' W 122°45'9 8.8
2017-Mar-24 11:32N 48°19' W 122°47'9 9.4
2017-Mar-24 10:33N 48°28' W 122°45'7 7.4
2017-Mar-24 09:33N 48°35' W 122°45'7 7.2
2017-Mar-24 08:33N 48°42' W 122°45'8 8.2
2017-Mar-24 07:33N 48°48' W 122°54'9 8.9
2017-Mar-24 06:33N 48°53' W 123°05'9 8.8
2017-Mar-24 05:33N 48°58' W 123°15'9 8.8
2017-Mar-24 04:33N 49°04' W 123°25'8 8.2
2017-Mar-24 03:33N 49°10' W 123°34'9 8.7
2017-Mar-24 02:33N 49°16' W 123°43'9 9.5
2017-Mar-24 01:33N 49°22' W 123°55'9 9.2
2017-Mar-24 00:33N 49°28' W 124°06'9 9.0
2017-Mar-23 23:33N 49°33' W 124°18'9 8.9
2017-Mar-23 22:33N 49°37' W 124°29'8 8.4
2017-Mar-23 21:33N 49°42' W 124°40'8 7.8
2017-Mar-23 20:33N 49°47' W 124°50'8 7.6
2017-Mar-23 19:33N 49°51' W 124°59'9 8.6
2017-Mar-23 18:33N 49°57' W 125°09'10 9.8
2017-Mar-23 17:33N 50°05' W 125°17'9 8.8
2017-Mar-23 16:33N 50°13' W 125°23'56 7.8
2017-Mar-23 09:23N 50°35' W 126°43'10 9.8
2017-Mar-23 08:20N 50°42' W 126°55'8 9.7
2017-Mar-23 07:29N 50°45' W 127°07'9 9.7
2017-Mar-23 06:33N 50°51' W 127°18'10 9.7
2017-Mar-23 05:33N 50°58' W 127°30'10 9.5
2017-Mar-23 04:33N 51°04' W 127°41'359 8.8
2017-Mar-21 12:00N 55°36' W 134°12'109 9.1 320 / 101012.0 5.4 7.7
2017-Mar-21 00:00N 57°24' W 134°42'91 7.5 260 / 101020.0 5.4 41.4
2017-Mar-20 12:00N 58°12' W 137°06'98 8.1 150 / 301022.0 2.2 6.0
2017-Mar-20 00:00N 58°48' W 140°00'105 8.7 160 / 251015.0 5.4 8.9
2017-Mar-19 12:00N 59°24' W 143°12'55 9.1 130 / 101007.0 36.9
2017-Mar-19 06:00N 59°42' W 144°54'   160 / 121004.010.8 1.6
2017-Mar-15 18:00N 60°00' W 145°42'49 8.1 030 / 35999.0 2.2 0.5
2017-Mar-15 12:00N 59°36' W 144°18'6110.2 100 / 15990.0 2.7
2017-Mar-15 06:00N 59°30' W 142°18'61 8.8 120 / 15990.0 5.4 2.7
2017-Mar-14 23:00N 59°24' W 140°18'   060 / 20988.0 1.1 1.1

Dump ship's entire track history